createdAt,value
2024-02-13T00:02:21.335Z,72.90
2024-02-13T00:04:53.152Z,72.81
2024-02-13T00:07:24.909Z,72.87
2024-02-13T00:09:56.686Z,72.87
2024-02-13T00:12:30.847Z,72.81
2024-02-13T00:15:05.645Z,72.73
2024-02-13T00:17:42.228Z,72.94
2024-02-13T00:20:16.384Z,72.86
2024-02-13T00:22:49.144Z,72.74
2024-02-13T00:25:21.077Z,72.60
2024-02-13T00:27:52.876Z,72.51
2024-02-13T00:30:24.820Z,72.39
2024-02-13T00:32:58.703Z,72.27
2024-02-13T00:35:30.691Z,72.25
2024-02-13T00:38:02.679Z,72.21
2024-02-13T00:40:34.450Z,72.07
2024-02-13T00:43:06.845Z,72.16
2024-02-13T00:45:38.599Z,72.06
2024-02-13T00:48:11.671Z,72.08
2024-02-13T00:50:45.678Z,72.06
2024-02-13T00:53:17.882Z,72.07
2024-02-13T00:55:50.736Z,72.11
2024-02-13T00:58:22.499Z,72.08
2024-02-13T01:00:55.277Z,72.09
2024-02-13T01:03:27.145Z,72.19
2024-02-13T01:05:59.223Z,72.09
2024-02-13T01:08:31.103Z,72.19
2024-02-13T01:11:03.173Z,72.27
2024-02-13T01:13:35.033Z,72.28
2024-02-13T01:16:08.269Z,72.27
2024-02-13T01:18:40.154Z,72.27
2024-02-13T01:21:15.388Z,72.38
2024-02-13T01:23:48.207Z,72.44
2024-02-13T01:26:20.547Z,72.52
2024-02-13T01:28:52.346Z,72.44
2024-02-13T01:31:24.264Z,72.47
2024-02-13T01:33:56.178Z,72.52
2024-02-13T01:36:28.944Z,72.66
2024-02-13T01:39:04.195Z,72.72
2024-02-13T01:41:36.105Z,72.71
2024-02-13T01:44:08.104Z,72.76
2024-02-13T01:46:40.816Z,72.92
2024-02-13T01:49:13.355Z,72.90
2024-02-13T01:51:45.258Z,72.91
2024-02-13T01:54:17.374Z,72.87
2024-02-13T01:56:50.141Z,72.86
2024-02-13T01:59:23.631Z,72.78
2024-02-13T02:01:56.723Z,72.84
2024-02-13T02:04:31.258Z,72.74
2024-02-13T02:07:04.928Z,72.80
2024-02-13T02:09:37.065Z,72.67
2024-02-13T02:12:10.882Z,72.75
2024-02-13T02:14:44.606Z,72.75
2024-02-13T02:17:16.582Z,72.73
2024-02-13T02:19:48.395Z,72.79
2024-02-13T02:22:20.269Z,72.91
2024-02-13T02:24:52.016Z,72.79
2024-02-13T02:27:23.802Z,72.88
2024-02-13T02:29:55.612Z,72.81
2024-02-13T02:32:29.336Z,72.93
2024-02-13T02:35:01.274Z,72.87
2024-02-13T02:37:36.001Z,72.86
2024-02-13T02:40:09.663Z,72.80
2024-02-13T02:42:41.395Z,73.06
2024-02-13T02:45:13.441Z,73.01
2024-02-13T02:47:45.552Z,73.05
2024-02-13T02:50:17.605Z,73.14
2024-02-13T02:52:49.392Z,73.18
2024-02-13T02:55:22.577Z,73.13
2024-02-13T02:57:54.828Z,73.08
2024-02-13T03:00:26.961Z,73.20
2024-02-13T03:02:58.924Z,73.10
2024-02-13T03:05:31.239Z,73.02
2024-02-13T03:08:06.300Z,73.26
2024-02-13T03:10:38.143Z,73.36
2024-02-13T03:13:10.148Z,73.25
2024-02-13T03:15:42.253Z,73.27
2024-02-13T03:18:14.586Z,73.31
2024-02-13T03:20:47.432Z,73.17
2024-02-13T03:23:19.238Z,73.19
2024-02-13T03:25:51.080Z,73.25
2024-02-13T03:28:23.202Z,73.29
2024-02-13T03:30:58.039Z,73.35
2024-02-13T03:33:29.998Z,73.33
2024-02-13T03:36:02.114Z,73.37
2024-02-13T03:38:33.941Z,73.14
2024-02-13T03:41:05.869Z,72.93
2024-02-13T03:43:38.286Z,73.24
2024-02-13T03:46:10.101Z,73.47
2024-02-13T03:48:42.150Z,73.25
2024-02-13T03:51:14.429Z,73.31
2024-02-13T03:53:46.442Z,73.36
2024-02-13T03:56:18.343Z,73.14
2024-02-13T03:58:50.204Z,73.35
2024-02-13T04:01:21.991Z,73.37
2024-02-13T04:03:53.896Z,73.56
2024-02-13T04:06:26.557Z,73.66
2024-02-13T04:08:58.340Z,73.73
2024-02-13T04:11:30.289Z,73.69
2024-02-13T04:14:02.082Z,73.71
2024-02-13T04:16:33.848Z,73.61
2024-02-13T04:19:05.691Z,73.53
2024-02-13T04:21:39.263Z,73.57
2024-02-13T04:24:11.460Z,73.68
2024-02-13T04:26:44.035Z,73.86
2024-02-13T04:29:15.960Z,73.92
2024-02-13T04:31:47.791Z,73.90
2024-02-13T04:34:19.682Z,74.04
2024-02-13T04:36:51.678Z,73.99
2024-02-13T04:39:23.413Z,73.94
2024-02-13T04:41:55.289Z,73.85
2024-02-13T04:44:27.140Z,73.94
2024-02-13T04:46:58.905Z,74.01
2024-02-13T04:49:30.764Z,73.93
2024-02-13T04:52:02.656Z,73.82
2024-02-13T04:54:34.528Z,73.85
2024-02-13T04:57:06.806Z,73.91
2024-02-13T04:59:49.426Z,73.88
2024-02-13T05:02:22.780Z,73.96
2024-02-13T05:05:12.044Z,73.87
2024-02-13T05:07:46.040Z,73.89
2024-02-13T05:10:17.842Z,73.74
2024-02-13T05:12:49.631Z,73.80
2024-02-13T05:15:22.674Z,73.75
2024-02-13T05:17:54.588Z,73.83
2024-02-13T05:20:26.524Z,73.77
2024-02-13T05:23:00.146Z,73.70
2024-02-13T05:25:32.409Z,73.70
2024-02-13T05:28:04.280Z,73.84
2024-02-13T05:30:36.774Z,73.78
2024-02-13T05:33:08.968Z,73.85
2024-02-13T05:35:42.664Z,74.05
2024-02-13T05:38:15.224Z,73.89
2024-02-13T05:40:46.984Z,73.93
2024-02-13T05:43:18.775Z,73.99
2024-02-13T05:45:50.676Z,73.96
2024-02-13T05:48:23.397Z,73.98
2024-02-13T05:50:55.913Z,73.84
2024-02-13T05:53:30.079Z,74.02
2024-02-13T05:56:02.212Z,73.98
2024-02-13T05:58:35.024Z,73.93
2024-02-13T06:01:08.738Z,74.06
2024-02-13T06:03:40.754Z,74.02
2024-02-13T06:06:12.715Z,74.01
2024-02-13T06:08:44.611Z,73.96
2024-02-13T06:11:16.818Z,73.99
2024-02-13T06:13:50.545Z,74.00
2024-02-13T06:16:22.313Z,73.91
2024-02-13T06:18:54.182Z,73.90
2024-02-13T06:21:27.648Z,73.91
2024-02-13T06:24:00.068Z,73.90
2024-02-13T06:26:33.527Z,73.91
2024-02-13T06:29:07.923Z,73.84
2024-02-13T06:31:39.812Z,73.60
2024-02-13T06:34:11.833Z,73.72
2024-02-13T06:36:43.625Z,73.59
2024-02-13T06:39:15.540Z,73.66
2024-02-13T06:41:47.502Z,73.48
2024-02-13T06:44:23.416Z,73.45
2024-02-13T06:46:55.562Z,73.62
2024-02-13T06:49:30.846Z,73.58
2024-02-13T06:52:05.078Z,73.57
2024-02-13T06:54:37.038Z,73.44
2024-02-13T06:57:09.102Z,73.22
2024-02-13T06:59:41.901Z,73.20
2024-02-13T07:02:13.771Z,73.10
2024-02-13T07:04:45.606Z,72.74
2024-02-13T07:07:28.867Z,72.77
2024-02-13T07:10:12.416Z,72.80
2024-02-13T07:12:44.778Z,72.81
2024-02-13T07:15:17.215Z,72.66
2024-02-13T07:17:56.763Z,72.60
2024-02-13T07:20:33.041Z,72.66
2024-02-13T07:23:05.287Z,72.60
2024-02-13T07:25:37.099Z,72.68
2024-02-13T07:28:09.359Z,72.34
2024-02-13T07:30:41.287Z,72.31
2024-02-13T07:33:13.528Z,72.13
2024-02-13T07:35:45.531Z,71.88
2024-02-13T07:38:17.711Z,72.11
2024-02-13T07:40:49.658Z,71.89
2024-02-13T07:43:21.465Z,71.97
2024-02-13T07:45:53.243Z,71.64
2024-02-13T07:48:25.325Z,71.67
2024-02-13T07:50:59.025Z,71.59
2024-02-13T07:53:31.869Z,71.51
2024-02-13T07:56:04.887Z,71.57
2024-02-13T07:58:36.726Z,71.34
2024-02-13T08:01:11.061Z,71.33
2024-02-13T08:03:43.490Z,71.08
2024-02-13T08:06:15.434Z,70.98
2024-02-13T08:08:47.871Z,70.75
2024-02-13T08:11:21.886Z,70.39
2024-02-13T08:13:55.896Z,70.49
2024-02-13T08:16:30.484Z,70.56
2024-02-13T08:19:02.301Z,70.49
2024-02-13T08:21:34.099Z,70.38
2024-02-13T08:24:06.314Z,70.06
2024-02-13T08:26:38.282Z,70.30
2024-02-13T08:29:10.533Z,69.86
2024-02-13T08:31:42.547Z,69.67
2024-02-13T08:34:14.711Z,69.56
2024-02-13T08:36:46.667Z,69.34
2024-02-13T08:39:18.561Z,69.06
2024-02-13T08:41:50.398Z,68.16
2024-02-13T08:44:22.651Z,67.04
2024-02-13T08:46:54.951Z,66.15
2024-02-13T08:49:26.979Z,65.67
2024-02-13T08:51:58.970Z,65.10
2024-02-13T08:54:30.761Z,62.41
2024-02-13T08:57:02.577Z,59.27
2024-02-13T08:59:34.503Z,57.90
2024-02-13T09:02:09.888Z,56.42
2024-02-13T09:04:41.733Z,54.43
2024-02-13T09:07:14.020Z,53.06
2024-02-13T09:09:46.217Z,52.05
2024-02-13T09:12:18.135Z,51.31
2024-02-13T09:14:49.901Z,50.75
2024-02-13T09:17:21.826Z,50.31
2024-02-13T09:19:54.094Z,50.31
2024-02-13T09:22:26.114Z,49.78
2024-02-13T09:24:59.016Z,48.90
2024-02-13T09:27:31.048Z,48.47
2024-02-13T09:30:02.977Z,48.54
2024-02-13T09:32:36.924Z,48.64
2024-02-13T09:35:10.269Z,48.26
2024-02-13T09:37:44.595Z,47.83
2024-02-13T09:40:17.406Z,46.64
2024-02-13T09:42:50.432Z,44.74
2024-02-13T09:45:22.768Z,43.66
2024-02-13T09:48:00.335Z,42.37
2024-02-13T09:50:38.517Z,41.31
2024-02-13T09:53:18.800Z,40.17
2024-02-13T09:55:50.705Z,39.01
2024-02-13T09:58:23.531Z,39.12
2024-02-13T10:00:59.739Z,39.43
2024-02-13T10:03:33.334Z,40.65
2024-02-13T10:06:05.578Z,41.81
2024-02-13T10:08:40.385Z,42.36
2024-02-13T10:11:15.538Z,42.94
2024-02-13T10:13:48.686Z,43.05
2024-02-13T10:16:25.039Z,43.77
2024-02-13T10:18:59.597Z,43.70
2024-02-13T10:21:31.950Z,43.94
2024-02-13T10:24:13.015Z,44.44
2024-02-13T10:26:45.007Z,44.86
2024-02-13T10:29:16.921Z,44.91
2024-02-13T10:31:48.766Z,44.93
2024-02-13T10:34:23.196Z,44.72
2024-02-13T10:36:57.061Z,44.93
2024-02-13T10:39:31.223Z,44.95
2024-02-13T10:42:07.006Z,45.51
2024-02-13T10:44:44.848Z,45.58
2024-02-13T10:47:20.752Z,46.17
2024-02-13T10:49:55.837Z,46.38
2024-02-13T10:52:28.560Z,46.64
2024-02-13T10:55:04.872Z,47.10
2024-02-13T10:57:39.095Z,47.33
2024-02-13T11:00:15.963Z,47.36
2024-02-13T11:02:50.050Z,47.47
2024-02-13T11:05:26.449Z,47.68
2024-02-13T11:07:58.517Z,47.94
2024-02-13T11:10:35.780Z,47.31
2024-02-13T11:13:10.596Z,46.55
2024-02-13T11:15:42.884Z,46.41
2024-02-13T11:18:15.788Z,46.78
2024-02-13T11:20:52.024Z,47.00
2024-02-13T11:23:31.128Z,47.25
2024-02-13T11:26:03.793Z,47.38
2024-02-13T11:28:42.488Z,47.58
2024-02-13T11:31:18.150Z,47.96
2024-02-13T11:34:07.198Z,48.69
2024-02-13T11:36:39.532Z,49.58
2024-02-13T11:39:11.759Z,50.08
2024-02-13T11:41:43.686Z,50.07
2024-02-13T11:44:17.572Z,50.19
2024-02-13T11:46:55.544Z,50.25
2024-02-13T11:49:28.083Z,50.81
2024-02-13T11:52:00.279Z,51.26
2024-02-13T11:54:35.461Z,51.67
2024-02-13T11:57:07.779Z,52.29
2024-02-13T11:59:41.770Z,52.52
2024-02-13T12:02:16.639Z,53.22
2024-02-13T12:04:50.090Z,53.64
2024-02-13T12:07:23.142Z,53.85
2024-02-13T12:09:55.093Z,53.79
2024-02-13T12:12:27.219Z,53.81
2024-02-13T12:14:59.496Z,54.13
2024-02-13T12:17:33.602Z,53.91
2024-02-13T12:20:13.315Z,54.34
2024-02-13T12:22:46.828Z,54.56
2024-02-13T12:25:22.353Z,54.77
2024-02-13T12:28:01.528Z,55.37
2024-02-13T12:30:34.837Z,55.61
2024-02-13T12:33:10.247Z,55.88
2024-02-13T12:35:45.994Z,56.03
2024-02-13T12:38:20.397Z,56.39
2024-02-13T12:40:52.888Z,56.56
2024-02-13T12:43:28.363Z,56.59
2024-02-13T12:46:03.610Z,56.94
2024-02-13T12:48:40.681Z,56.91
2024-02-13T12:51:13.633Z,56.95
2024-02-13T12:53:47.115Z,56.92
2024-02-13T12:56:19.064Z,57.42
2024-02-13T12:58:52.987Z,57.87
2024-02-13T13:01:25.978Z,58.39
2024-02-13T13:03:59.345Z,58.59
2024-02-13T13:06:34.499Z,58.76
2024-02-13T13:09:20.108Z,59.29
2024-02-13T13:11:59.983Z,59.76
2024-02-13T13:14:33.103Z,60.29
2024-02-13T13:17:05.160Z,60.37
2024-02-13T13:19:38.743Z,60.62
2024-02-13T13:22:13.360Z,60.73
2024-02-13T13:24:45.346Z,61.23
2024-02-13T13:27:19.570Z,61.17
2024-02-13T13:29:51.439Z,61.13
2024-02-13T13:32:23.283Z,61.21
2024-02-13T13:34:55.226Z,61.08
2024-02-13T13:37:29.958Z,61.03
2024-02-13T13:40:01.741Z,61.17
2024-02-13T13:42:36.933Z,61.20
2024-02-13T13:45:11.434Z,61.00
2024-02-13T13:47:43.244Z,61.22
2024-02-13T13:50:18.862Z,61.07
2024-02-13T13:52:52.122Z,60.89
2024-02-13T13:55:24.124Z,60.50
2024-02-13T13:57:56.124Z,60.16
2024-02-13T14:00:31.147Z,60.24
2024-02-13T14:03:03.427Z,60.33
2024-02-13T14:05:36.754Z,60.48
2024-02-13T14:08:10.673Z,60.65
2024-02-13T14:10:44.593Z,60.88
2024-02-13T14:13:18.247Z,60.87
2024-02-13T14:15:50.841Z,61.15
2024-02-13T14:18:22.805Z,61.43
2024-02-13T14:20:54.907Z,61.53
2024-02-13T14:23:28.455Z,61.89
2024-02-13T14:26:00.356Z,61.76
2024-02-13T14:28:32.230Z,61.75
2024-02-13T14:31:04.292Z,61.95
2024-02-13T14:33:36.827Z,61.87
2024-02-13T14:36:09.368Z,62.02
2024-02-13T14:38:42.173Z,62.28
2024-02-13T14:41:16.392Z,62.23
2024-02-13T14:43:49.112Z,62.24
2024-02-13T14:46:20.909Z,62.24
2024-02-13T14:48:53.239Z,62.09
2024-02-13T14:51:25.311Z,62.16
2024-02-13T14:53:57.324Z,62.39
2024-02-13T14:56:30.295Z,62.55
2024-02-13T14:59:02.154Z,62.71
2024-02-13T15:01:34.110Z,62.87
2024-02-13T15:04:07.743Z,62.95
2024-02-13T15:06:39.840Z,63.04
2024-02-13T15:09:12.199Z,63.39
2024-02-13T15:11:44.105Z,63.48
2024-02-13T15:14:15.975Z,63.58
2024-02-13T15:16:49.582Z,63.63
2024-02-13T15:19:22.433Z,63.69
2024-02-13T15:21:54.663Z,63.91
2024-02-13T15:24:26.537Z,64.14
2024-02-13T15:26:59.980Z,64.28
2024-02-13T15:29:33.497Z,64.01
2024-02-13T15:32:06.040Z,64.31
2024-02-13T15:34:42.381Z,64.53
2024-02-13T15:37:34.246Z,64.67
2024-02-13T15:40:24.771Z,64.87
2024-02-13T15:43:14.144Z,65.02
2024-02-13T15:46:03.957Z,64.92
2024-02-13T15:48:36.164Z,64.97
2024-02-13T15:51:10.517Z,65.24
2024-02-13T15:53:42.800Z,65.03
2024-02-13T15:56:15.245Z,65.02
2024-02-13T15:58:47.011Z,65.13
2024-02-13T16:01:19.030Z,65.10
2024-02-13T16:03:50.828Z,65.20
2024-02-13T16:06:22.917Z,65.03
2024-02-13T16:08:54.867Z,64.94
2024-02-13T16:11:26.872Z,65.13
2024-02-13T16:14:00.115Z,65.25
2024-02-13T16:16:31.951Z,65.15
2024-02-13T16:19:04.648Z,65.24
2024-02-13T16:21:36.557Z,65.16
2024-02-13T16:24:10.134Z,65.17
2024-02-13T16:26:42.187Z,65.48
2024-02-13T16:29:13.989Z,65.64
2024-02-13T16:31:45.754Z,65.86
2024-02-13T16:34:19.781Z,65.85
2024-02-13T16:36:51.719Z,65.92
2024-02-13T16:39:23.870Z,66.14
2024-02-13T16:41:59.719Z,66.27
2024-02-13T16:44:31.676Z,66.42
2024-02-13T16:47:05.296Z,66.31
2024-02-13T16:49:37.321Z,66.35
2024-02-13T16:52:09.545Z,66.50
2024-02-13T16:54:42.120Z,66.48
2024-02-13T16:57:14.496Z,66.48
2024-02-13T16:59:46.928Z,66.43
2024-02-13T17:02:18.847Z,66.57
2024-02-13T17:04:50.670Z,66.64
2024-02-13T17:07:22.682Z,66.55
2024-02-13T17:09:54.601Z,66.53
2024-02-13T17:12:27.156Z,66.50
2024-02-13T17:14:59.180Z,66.49
2024-02-13T17:17:31.139Z,66.31
2024-02-13T17:20:05.075Z,66.38
2024-02-13T17:22:36.949Z,66.59
2024-02-13T17:25:12.414Z,66.35
2024-02-13T17:27:44.267Z,66.44
2024-02-13T17:30:17.156Z,66.33
2024-02-13T17:32:50.391Z,66.47
2024-02-13T17:35:22.408Z,66.45
2024-02-13T17:37:54.172Z,66.31
2024-02-13T17:40:31.750Z,66.16
2024-02-13T17:43:03.636Z,66.11
2024-02-13T17:45:35.829Z,66.20
2024-02-13T17:48:11.106Z,65.97
2024-02-13T17:50:43.047Z,65.96
2024-02-13T17:53:15.878Z,65.86
2024-02-13T17:55:48.026Z,65.98
2024-02-13T17:58:19.886Z,66.09
2024-02-13T18:00:51.702Z,65.74
2024-02-13T18:03:23.653Z,65.83
2024-02-13T18:05:55.667Z,65.87
2024-02-13T18:08:27.493Z,65.85
2024-02-13T18:10:59.549Z,65.85
2024-02-13T18:13:31.845Z,65.85
2024-02-13T18:16:04.802Z,65.85
2024-02-13T18:18:36.733Z,65.72
2024-02-13T18:21:09.266Z,65.85
2024-02-13T18:23:41.106Z,65.75
2024-02-13T18:26:12.919Z,65.77
2024-02-13T18:28:47.093Z,65.81
2024-02-13T18:31:19.980Z,65.86
2024-02-13T18:33:52.590Z,65.69
2024-02-13T18:36:25.279Z,65.72
2024-02-13T18:38:57.235Z,65.79
2024-02-13T18:41:29.521Z,65.91
2024-02-13T18:44:01.468Z,66.20
2024-02-13T18:46:33.391Z,66.16
2024-02-13T18:49:05.335Z,66.28
2024-02-13T18:51:37.249Z,66.21
2024-02-13T18:54:09.172Z,66.01
2024-02-13T18:56:42.243Z,65.99
2024-02-13T18:59:14.350Z,66.00
2024-02-13T19:01:46.657Z,66.09
2024-02-13T19:04:18.673Z,65.98
2024-02-13T19:06:50.974Z,66.17
2024-02-13T19:09:22.915Z,66.28
2024-02-13T19:11:54.746Z,66.24
2024-02-13T19:14:26.828Z,66.36
2024-02-13T19:16:59.496Z,66.24
2024-02-13T19:19:31.509Z,66.21
2024-02-13T19:22:04.415Z,66.11
2024-02-13T19:24:36.856Z,66.08
2024-02-13T19:27:11.050Z,66.23
2024-02-13T19:29:43.193Z,66.23
2024-02-13T19:32:16.500Z,66.34
2024-02-13T19:34:48.365Z,66.34
2024-02-13T19:37:20.446Z,66.44
2024-02-13T19:39:52.244Z,66.44
2024-02-13T19:42:23.993Z,66.60
2024-02-13T19:44:55.883Z,66.48
2024-02-13T19:47:27.933Z,66.54
2024-02-13T19:50:00.194Z,66.47
2024-02-13T19:52:34.349Z,66.45
2024-02-13T19:55:07.103Z,66.40
2024-02-13T19:57:39.011Z,66.41
2024-02-13T20:00:12.522Z,66.40
2024-02-13T20:02:44.529Z,66.54
2024-02-13T20:05:18.281Z,66.55
2024-02-13T20:07:50.630Z,66.67
2024-02-13T20:10:23.566Z,66.79
2024-02-13T20:12:56.389Z,66.94
2024-02-13T20:15:28.382Z,67.15
2024-02-13T20:18:01.198Z,67.29
2024-02-13T20:20:33.196Z,67.27
2024-02-13T20:23:05.169Z,67.38
2024-02-13T20:25:37.036Z,67.52
2024-02-13T20:28:10.725Z,67.57
2024-02-13T20:30:42.584Z,67.72
2024-02-13T20:33:18.411Z,67.74
2024-02-13T20:36:02.162Z,67.92
2024-02-13T20:38:40.047Z,67.91
2024-02-13T20:41:12.413Z,67.92
2024-02-13T20:43:45.097Z,68.10
2024-02-13T20:46:19.755Z,68.20
2024-02-13T20:48:51.771Z,68.25
2024-02-13T20:51:23.662Z,68.15
2024-02-13T20:53:55.487Z,68.25
2024-02-13T20:56:27.359Z,68.34
2024-02-13T20:59:00.915Z,68.46
2024-02-13T21:01:39.515Z,68.42
2024-02-13T21:04:11.640Z,68.47
2024-02-13T21:06:44.851Z,68.61
2024-02-13T21:09:17.756Z,68.76
2024-02-13T21:11:49.689Z,68.69
2024-02-13T21:14:21.909Z,68.76
2024-02-13T21:16:53.709Z,68.75
2024-02-13T21:19:25.603Z,68.70
2024-02-13T21:22:14.676Z,68.86
2024-02-13T21:24:47.186Z,68.85
2024-02-13T21:27:19.098Z,69.01
2024-02-13T21:29:51.554Z,68.91
2024-02-13T21:32:23.680Z,68.97
2024-02-13T21:34:55.565Z,69.03
2024-02-13T21:37:27.378Z,69.08
2024-02-13T21:39:59.160Z,69.17
2024-02-13T21:42:31.262Z,69.00
2024-02-13T21:45:03.631Z,68.90
2024-02-13T21:47:36.421Z,69.15
2024-02-13T21:50:09.789Z,69.11
2024-02-13T21:52:42.056Z,68.99
2024-02-13T21:55:14.025Z,69.11
2024-02-13T21:57:45.794Z,68.99
2024-02-13T22:00:19.426Z,69.01
2024-02-13T22:02:51.355Z,69.34
2024-02-13T22:05:23.631Z,69.27
2024-02-13T22:07:55.472Z,69.24
2024-02-13T22:10:27.272Z,69.31
2024-02-13T22:12:59.076Z,69.50
2024-02-13T22:15:30.926Z,69.61
2024-02-13T22:18:03.463Z,69.63
2024-02-13T22:20:38.199Z,69.50
2024-02-13T22:23:11.199Z,69.60
2024-02-13T22:25:43.929Z,69.78
2024-02-13T22:28:17.320Z,69.30
2024-02-13T22:30:49.111Z,69.49
2024-02-13T22:33:22.011Z,69.79
2024-02-13T22:35:55.380Z,69.53
2024-02-13T22:38:27.344Z,69.88
2024-02-13T22:40:59.098Z,69.88
2024-02-13T22:43:33.220Z,69.77
2024-02-13T22:46:05.770Z,69.68
2024-02-13T22:48:37.767Z,69.98
2024-02-13T22:51:09.665Z,69.71
2024-02-13T22:53:41.691Z,69.88
2024-02-13T22:56:13.510Z,70.10
2024-02-13T22:58:45.462Z,70.23
2024-02-13T23:01:17.268Z,70.01
2024-02-13T23:03:50.861Z,70.16
2024-02-13T23:06:22.967Z,70.19
2024-02-13T23:08:54.887Z,70.20
2024-02-13T23:11:26.839Z,70.08
2024-02-13T23:13:58.754Z,70.15
2024-02-13T23:16:30.894Z,70.14
2024-02-13T23:19:05.614Z,70.34
2024-02-13T23:21:38.056Z,70.48
2024-02-13T23:24:11.775Z,70.34
2024-02-13T23:26:43.734Z,70.34
2024-02-13T23:29:15.975Z,70.31
2024-02-13T23:31:47.778Z,70.32
2024-02-13T23:34:19.792Z,70.90
2024-02-13T23:36:51.609Z,70.47
2024-02-13T23:39:23.390Z,70.33
2024-02-13T23:41:55.216Z,70.33
2024-02-13T23:44:27.793Z,70.82
2024-02-13T23:46:59.827Z,70.76
2024-02-13T23:49:31.753Z,70.85
2024-02-13T23:52:03.915Z,70.85
2024-02-13T23:54:36.567Z,70.68
2024-02-13T23:57:10.659Z,70.71
2024-02-13T23:59:43.107Z,70.77
